createdAt,value
2022-08-07T00:00:30.533Z,8.70
2022-08-07T00:02:57.395Z,8.70
2022-08-07T00:05:25.020Z,8.70
2022-08-07T00:07:58.302Z,8.70
2022-08-07T00:10:29.661Z,8.70
2022-08-07T00:13:02.170Z,8.70
2022-08-07T00:15:38.155Z,8.60
2022-08-07T00:18:19.740Z,8.60
2022-08-07T00:20:57.431Z,8.60
2022-08-07T00:23:30.149Z,8.50
2022-08-07T00:26:00.262Z,8.50
2022-08-07T00:28:31.774Z,8.40
2022-08-07T00:31:12.352Z,8.20
2022-08-07T00:33:40.974Z,8.10
2022-08-07T00:36:09.459Z,8.10
2022-08-07T00:38:37.368Z,8.10
2022-08-07T00:41:10.059Z,8.10
2022-08-07T00:44:01.496Z,8.20
2022-08-07T00:46:32.993Z,8.20
2022-08-07T00:49:02.780Z,8.20
2022-08-07T00:51:58.391Z,8.40
2022-08-07T00:54:19.755Z,8.40
2022-08-07T00:56:49.754Z,8.10
2022-08-07T00:59:20.319Z,8.30
2022-08-07T01:02:02.672Z,8.30
2022-08-07T01:04:30.640Z,8.10
2022-08-07T01:07:00.108Z,8.00
2022-08-07T01:10:04.921Z,8.00
2022-08-07T01:12:30.231Z,8.00
2022-08-07T01:15:01.147Z,8.10
2022-08-07T01:17:31.179Z,7.90
2022-08-07T01:20:17.037Z,8.00
2022-08-07T01:23:00.567Z,7.90
2022-08-07T01:25:53.543Z,7.80
2022-08-07T01:28:22.134Z,7.90
2022-08-07T01:30:51.268Z,7.80
2022-08-07T01:33:19.093Z,7.90
2022-08-07T01:35:53.667Z,7.70
2022-08-07T01:38:25.050Z,7.70
2022-08-07T01:40:59.829Z,7.60
2022-08-07T01:43:34.677Z,7.60
2022-08-07T01:46:05.792Z,7.60
2022-08-07T01:48:35.993Z,7.60
2022-08-07T01:51:58.673Z,7.70
2022-08-07T01:54:12.577Z,7.40
2022-08-07T01:57:06.862Z,7.40
2022-08-07T01:59:48.300Z,7.40
2022-08-07T02:03:12.138Z,7.60
2022-08-07T02:05:47.768Z,7.30
2022-08-07T02:08:20.444Z,7.30
2022-08-07T02:10:55.223Z,7.30
2022-08-07T02:13:56.512Z,7.30
2022-08-07T02:16:28.770Z,7.30
2022-08-07T02:20:04.797Z,7.30
2022-08-07T02:21:58.752Z,7.20
2022-08-07T02:24:29.420Z,7.20
2022-08-07T02:27:02.716Z,7.40
2022-08-07T02:29:33.022Z,7.30
2022-08-07T02:32:06.169Z,7.20
2022-08-07T02:34:51.099Z,7.30
2022-08-07T02:37:21.776Z,7.20
2022-08-07T02:40:12.126Z,7.10
2022-08-07T02:42:40.341Z,7.10
2022-08-07T02:45:58.674Z,7.20
2022-08-07T02:48:01.879Z,7.00
2022-08-07T02:50:30.908Z,7.10
2022-08-07T02:53:06.309Z,7.00
2022-08-07T02:56:02.431Z,6.90
2022-08-07T02:58:27.529Z,6.90
2022-08-07T03:00:58.072Z,6.90
2022-08-07T03:03:49.361Z,6.90
2022-08-07T03:06:26.193Z,6.90
2022-08-07T03:09:03.704Z,6.90
2022-08-07T03:11:38.672Z,6.90
2022-08-07T03:14:06.614Z,6.80
2022-08-07T03:16:35.942Z,6.80
2022-08-07T03:19:05.950Z,6.80
2022-08-07T03:21:33.485Z,6.80
2022-08-07T03:24:19.501Z,6.80
2022-08-07T03:26:58.122Z,6.90
2022-08-07T03:29:32.140Z,6.70
2022-08-07T03:32:06.525Z,6.60
2022-08-07T03:34:39.353Z,6.60
2022-08-07T03:37:19.790Z,6.60
2022-08-07T03:40:07.353Z,6.60
2022-08-07T03:42:43.319Z,6.70
2022-08-07T03:45:11.722Z,6.60
2022-08-07T03:47:48.065Z,6.40
2022-08-07T03:50:23.067Z,6.40
2022-08-07T03:52:53.512Z,6.40
2022-08-07T03:55:21.825Z,6.40
2022-08-07T03:58:35.152Z,6.40
2022-08-07T04:00:39.035Z,6.30
2022-08-07T04:03:13.962Z,6.40
2022-08-07T04:05:42.501Z,6.40
2022-08-07T04:08:16.008Z,6.50
2022-08-07T04:10:53.868Z,6.50
2022-08-07T04:14:09.335Z,6.50
2022-08-07T04:16:30.900Z,6.60
2022-08-07T04:19:01.807Z,6.60
2022-08-07T04:21:33.502Z,6.60
2022-08-07T04:24:07.835Z,6.60
2022-08-07T04:26:35.117Z,6.60
2022-08-07T04:29:03.144Z,6.70
2022-08-07T04:31:39.065Z,6.70
2022-08-07T04:34:24.154Z,6.90
2022-08-07T04:37:01.157Z,6.80
2022-08-07T04:39:35.614Z,6.90
2022-08-07T04:42:04.294Z,7.20
2022-08-07T04:44:31.274Z,7.00
2022-08-07T04:47:56.794Z,7.30
2022-08-07T04:50:18.094Z,7.20
2022-08-07T04:53:07.305Z,7.30
2022-08-07T04:58:14.298Z,7.40
2022-08-07T05:00:12.634Z,7.70
2022-08-07T05:02:16.882Z,7.60
2022-08-07T05:05:11.450Z,7.80
2022-08-07T05:08:59.094Z,8.10
2022-08-07T05:11:26.434Z,8.20
2022-08-07T05:14:55.215Z,8.30
2022-08-07T05:17:51.965Z,8.60
2022-08-07T05:20:09.612Z,9.10
2022-08-07T05:22:40.068Z,9.60
2022-08-07T05:25:11.565Z,10.10
2022-08-07T05:28:02.959Z,10.50
2022-08-07T05:30:42.880Z,10.90
2022-08-07T05:33:12.867Z,11.30
2022-08-07T05:35:43.417Z,11.50
2022-08-07T05:38:12.893Z,11.70
2022-08-07T05:41:05.515Z,11.90
2022-08-07T05:44:08.448Z,12.20
2022-08-07T05:46:37.567Z,12.40
2022-08-07T05:49:12.294Z,12.50
2022-08-07T05:51:46.467Z,12.70
2022-08-07T05:54:44.610Z,13.10
2022-08-07T05:57:04.504Z,13.50
2022-08-07T05:59:47.238Z,14.10
2022-08-07T06:02:30.496Z,14.50
2022-08-07T06:05:05.811Z,15.00
2022-08-07T06:08:09.164Z,15.10
2022-08-07T06:10:22.658Z,15.10
2022-08-07T06:12:49.864Z,15.20
2022-08-07T06:15:19.878Z,15.40
2022-08-07T06:17:50.680Z,15.70
2022-08-07T06:20:25.379Z,16.20
2022-08-07T06:23:46.826Z,16.50
2022-08-07T06:25:58.762Z,16.90
2022-08-07T06:28:27.100Z,17.20
2022-08-07T06:30:56.461Z,17.40
2022-08-07T06:33:26.500Z,17.40
2022-08-07T06:36:12.129Z,17.50
2022-08-07T06:38:51.273Z,17.40
2022-08-07T06:42:00.456Z,17.30
2022-08-07T06:44:33.875Z,17.20
2022-08-07T06:47:12.067Z,17.00
2022-08-07T06:49:52.022Z,16.70
2022-08-07T06:52:35.525Z,16.50
2022-08-07T06:55:48.093Z,16.40
2022-08-07T06:58:24.522Z,16.40
2022-08-07T07:00:55.127Z,16.50
2022-08-07T07:03:39.541Z,16.60
2022-08-07T07:06:11.067Z,16.70
2022-08-07T07:08:39.833Z,17.00
2022-08-07T07:12:06.910Z,16.90
2022-08-07T07:14:03.955Z,16.90
2022-08-07T07:16:45.444Z,17.00
2022-08-07T07:19:55.312Z,17.00
2022-08-07T07:22:34.030Z,17.20
2022-08-07T07:26:30.748Z,17.40
2022-08-07T07:28:42.050Z,17.60
2022-08-07T07:31:17.330Z,18.10
2022-08-07T07:33:57.136Z,18.60
2022-08-07T07:36:32.505Z,19.10
2022-08-07T07:39:04.084Z,19.80
2022-08-07T07:42:02.289Z,20.70
2022-08-07T07:44:26.679Z,21.20
2022-08-07T07:47:04.234Z,21.50
2022-08-07T07:50:33.019Z,21.70
2022-08-07T07:52:31.065Z,21.70
2022-08-07T07:54:59.569Z,21.60
2022-08-07T07:57:50.331Z,21.50
2022-08-07T08:00:29.159Z,21.40
2022-08-07T08:03:16.906Z,21.20
2022-08-07T08:05:57.738Z,21.20
2022-08-07T08:08:35.496Z,21.10
2022-08-07T08:11:16.297Z,21.10
2022-08-07T08:13:54.271Z,21.10
2022-08-07T08:16:32.566Z,21.00
2022-08-07T08:19:17.476Z,21.10
2022-08-07T08:22:14.729Z,21.50
2022-08-07T08:25:24.560Z,22.20
2022-08-07T08:28:03.732Z,22.80
2022-08-07T08:30:34.429Z,23.20
2022-08-07T08:33:10.273Z,23.40
2022-08-07T08:35:50.066Z,23.30
2022-08-07T08:38:22.044Z,23.00
2022-08-07T08:41:15.601Z,22.80
2022-08-07T08:44:19.378Z,22.50
2022-08-07T08:47:27.613Z,22.30
2022-08-07T08:50:39.747Z,22.20
2022-08-07T08:53:26.388Z,22.20
2022-08-07T08:56:26.033Z,22.20
2022-08-07T08:59:12.741Z,22.20
2022-08-07T09:02:04.163Z,22.10
2022-08-07T09:05:03.744Z,22.00
2022-08-07T09:08:01.569Z,21.90
2022-08-07T09:10:44.887Z,21.90
2022-08-07T09:13:43.332Z,21.80
2022-08-07T09:16:47.659Z,21.70
2022-08-07T09:19:52.764Z,21.70
2022-08-07T09:24:31.971Z,21.70
2022-08-07T09:26:02.769Z,21.80
2022-08-07T09:30:04.031Z,21.90
2022-08-07T09:31:49.307Z,22.00
2022-08-07T09:34:28.395Z,22.00
2022-08-07T09:37:47.956Z,22.00
2022-08-07T09:40:42.249Z,22.10
2022-08-07T09:44:06.264Z,22.20
2022-08-07T09:47:50.935Z,22.30
2022-08-07T09:50:35.262Z,22.40
2022-08-07T09:53:07.255Z,22.50
2022-08-07T09:56:51.327Z,22.60
2022-08-07T10:00:01.918Z,22.80
2022-08-07T10:02:55.406Z,23.00
2022-08-07T10:05:59.623Z,23.10
2022-08-07T10:08:59.114Z,23.10
2022-08-07T10:12:16.709Z,23.40
2022-08-07T10:15:04.752Z,23.30
2022-08-07T10:18:03.292Z,23.50
2022-08-07T10:20:51.090Z,23.50
2022-08-07T10:24:05.047Z,23.50
2022-08-07T10:27:10.294Z,23.50
2022-08-07T10:30:06.550Z,23.50
2022-08-07T10:32:53.622Z,23.40
2022-08-07T10:35:55.325Z,23.40
2022-08-07T10:39:12.236Z,23.50
2022-08-07T10:42:00.469Z,23.80
2022-08-07T10:45:07.180Z,23.80
2022-08-07T10:47:53.887Z,23.80
2022-08-07T10:50:57.278Z,24.20
2022-08-07T10:53:43.989Z,24.50
2022-08-07T10:56:36.792Z,24.70
2022-08-07T11:00:09.034Z,25.20
2022-08-07T11:03:03.909Z,25.80
2022-08-07T11:06:04.855Z,26.30
2022-08-07T11:08:58.569Z,26.80
2022-08-07T11:11:37.699Z,27.10
2022-08-07T11:14:45.485Z,27.40
2022-08-07T11:17:43.630Z,27.50
2022-08-07T11:20:35.421Z,27.50
2022-08-07T11:23:36.230Z,27.30
2022-08-07T11:26:22.123Z,27.00
2022-08-07T11:29:05.747Z,26.60
2022-08-07T11:32:10.028Z,26.10
2022-08-07T11:34:48.713Z,25.90
2022-08-07T11:38:10.207Z,25.70
2022-08-07T11:40:57.889Z,25.60
2022-08-07T11:44:11.743Z,25.30
2022-08-07T11:47:17.118Z,25.30
2022-08-07T11:50:32.301Z,25.30
2022-08-07T11:53:35.143Z,25.40
2022-08-07T11:56:35.244Z,25.40
2022-08-07T12:00:11.261Z,25.50
2022-08-07T12:02:57.134Z,25.60
2022-08-07T12:05:49.167Z,25.80
2022-08-07T12:08:37.224Z,25.90
2022-08-07T12:11:23.720Z,25.80
2022-08-07T12:14:11.072Z,25.70
2022-08-07T12:17:06.388Z,25.60
2022-08-07T12:20:13.994Z,25.70
2022-08-07T12:23:17.988Z,25.50
2022-08-07T12:26:23.415Z,25.50
2022-08-07T12:29:12.500Z,25.60
2022-08-07T12:32:25.517Z,25.70
2022-08-07T12:34:56.170Z,25.50
2022-08-07T12:38:10.016Z,25.50
2022-08-07T12:40:46.658Z,25.50
2022-08-07T12:44:04.167Z,25.70
2022-08-07T12:46:34.506Z,25.80
2022-08-07T12:49:44.299Z,26.00
2022-08-07T12:52:35.257Z,26.10
2022-08-07T12:55:21.271Z,26.20
2022-08-07T12:58:00.901Z,26.20
2022-08-07T13:00:51.736Z,26.10
2022-08-07T13:03:56.054Z,26.20
2022-08-07T13:07:00.857Z,26.30
2022-08-07T13:10:20.388Z,26.40
2022-08-07T13:13:47.994Z,26.30
2022-08-07T13:16:37.308Z,26.30
2022-08-07T13:19:34.903Z,26.30
2022-08-07T13:22:27.814Z,26.20
2022-08-07T13:25:03.943Z,26.30
2022-08-07T13:28:10.883Z,26.40
2022-08-07T13:30:53.626Z,26.60
2022-08-07T13:34:30.827Z,26.50
2022-08-07T13:36:42.353Z,26.50
2022-08-07T13:40:33.276Z,26.50
2022-08-07T13:42:25.928Z,26.60
2022-08-07T13:46:07.004Z,26.80
2022-08-07T13:48:05.964Z,27.00
2022-08-07T13:51:00.045Z,27.10
2022-08-07T13:53:59.364Z,27.00
2022-08-07T13:56:35.357Z,26.80
2022-08-07T13:59:18.974Z,26.60
2022-08-07T14:02:04.109Z,26.70
2022-08-07T14:04:38.826Z,26.70
2022-08-07T14:07:23.696Z,26.90
2022-08-07T14:10:21.790Z,27.10
2022-08-07T14:13:01.237Z,27.20
2022-08-07T14:15:38.622Z,27.30
2022-08-07T14:18:29.088Z,27.50
2022-08-07T14:21:20.863Z,27.50
2022-08-07T14:24:09.267Z,27.50
2022-08-07T14:26:54.544Z,27.50
2022-08-07T14:30:05.482Z,27.50
2022-08-07T14:32:20.517Z,27.50
2022-08-07T14:34:54.863Z,27.60
2022-08-07T14:37:23.742Z,27.60
2022-08-07T14:40:17.553Z,27.50
2022-08-07T14:43:59.066Z,27.50
2022-08-07T14:45:59.037Z,27.60
2022-08-07T14:48:31.595Z,27.50
2022-08-07T14:51:15.787Z,27.50
2022-08-07T14:54:08.750Z,27.60
2022-08-07T14:56:34.293Z,27.70
2022-08-07T14:59:13.943Z,27.90
2022-08-07T15:02:08.008Z,28.00
2022-08-07T15:04:56.675Z,27.90
2022-08-07T15:07:47.405Z,28.00
2022-08-07T15:10:20.312Z,28.00
2022-08-07T15:13:01.066Z,28.00
2022-08-07T15:15:42.129Z,28.00
2022-08-07T15:18:33.895Z,27.90
2022-08-07T15:21:44.708Z,27.90
2022-08-07T15:27:29.777Z,28.00
2022-08-07T15:30:16.577Z,27.80
2022-08-07T15:33:01.384Z,27.60
2022-08-07T15:36:01.506Z,27.50
2022-08-07T15:38:50.943Z,27.50
2022-08-07T15:44:17.201Z,27.50
2022-08-07T15:46:52.660Z,27.50
2022-08-07T15:50:06.134Z,27.50
2022-08-07T15:52:30.006Z,27.50
2022-08-07T15:55:03.506Z,27.50
2022-08-07T15:57:40.306Z,27.70
2022-08-07T16:00:31.749Z,27.70
2022-08-07T16:03:21.761Z,27.60
2022-08-07T16:06:03.057Z,27.50
2022-08-07T16:08:38.448Z,27.40
2022-08-07T16:11:26.890Z,27.40
2022-08-07T16:14:06.992Z,27.30
2022-08-07T16:16:57.186Z,27.00
2022-08-07T16:19:58.769Z,26.80
2022-08-07T16:22:38.625Z,26.70
2022-08-07T16:25:59.395Z,26.50
2022-08-07T16:29:18.844Z,26.40
2022-08-07T16:31:51.410Z,26.40
2022-08-07T16:34:41.613Z,26.30
2022-08-07T16:38:07.290Z,26.20
2022-08-07T16:40:37.403Z,26.20
2022-08-07T16:44:11.261Z,26.00
2022-08-07T16:47:12.468Z,25.80
2022-08-07T16:50:20.023Z,25.60
2022-08-07T16:53:48.227Z,25.40
2022-08-07T16:56:43.891Z,25.30
2022-08-07T16:59:19.828Z,25.20
2022-08-07T17:02:09.057Z,25.00
2022-08-07T17:06:02.199Z,24.90
2022-08-07T17:07:59.681Z,24.80
2022-08-07T17:10:54.881Z,24.60
2022-08-07T17:14:18.422Z,24.50
2022-08-07T17:16:55.863Z,24.40
2022-08-07T17:20:00.591Z,24.20
2022-08-07T17:23:08.552Z,24.10
2022-08-07T17:26:22.880Z,24.00
2022-08-07T17:28:57.613Z,23.80
2022-08-07T17:32:03.215Z,23.70
2022-08-07T17:35:33.137Z,23.50
2022-08-07T17:38:07.233Z,23.40
2022-08-07T17:42:01.181Z,23.20
2022-08-07T17:44:13.701Z,23.10
2022-08-07T17:46:54.801Z,23.10
2022-08-07T17:49:53.275Z,23.00
2022-08-07T17:52:32.357Z,22.90
2022-08-07T17:55:59.968Z,22.80
2022-08-07T17:58:30.000Z,22.70
2022-08-07T18:01:20.592Z,22.70
2022-08-07T18:04:08.127Z,22.60
2022-08-07T18:07:20.081Z,22.50
2022-08-07T18:10:07.562Z,22.40
2022-08-07T18:13:10.153Z,22.30
2022-08-07T18:16:32.744Z,22.20
2022-08-07T18:21:08.957Z,22.10
2022-08-07T18:22:26.435Z,21.90
2022-08-07T18:25:19.146Z,21.90
2022-08-07T18:28:34.419Z,21.80
2022-08-07T18:31:34.070Z,21.70
2022-08-07T18:35:01.158Z,21.60
2022-08-07T18:38:57.835Z,21.50
2022-08-07T18:41:16.923Z,21.50
2022-08-07T18:44:02.902Z,21.40
2022-08-07T18:47:20.886Z,21.30
2022-08-07T18:50:44.076Z,21.20
2022-08-07T18:53:39.395Z,21.00
2022-08-07T18:56:58.304Z,21.00
2022-08-07T19:00:32.676Z,20.90
2022-08-07T19:03:35.416Z,20.80
2022-08-07T19:06:17.344Z,20.70
2022-08-07T19:09:09.432Z,20.60
2022-08-07T19:12:19.307Z,20.40
2022-08-07T19:16:03.087Z,20.30
2022-08-07T19:18:34.612Z,20.20
2022-08-07T19:21:46.550Z,20.10
2022-08-07T19:24:48.246Z,20.00
2022-08-07T19:28:57.776Z,19.90
2022-08-07T19:31:03.822Z,19.90
2022-08-07T19:33:10.290Z,19.80
2022-08-07T19:35:43.509Z,19.70
2022-08-07T19:38:17.729Z,19.70
2022-08-07T19:40:50.037Z,19.60
2022-08-07T19:43:43.758Z,19.60
2022-08-07T19:46:26.844Z,19.50
2022-08-07T19:49:04.838Z,19.40
2022-08-07T19:51:53.162Z,19.40
2022-08-07T19:54:29.579Z,19.30
2022-08-07T19:58:03.555Z,19.30
2022-08-07T20:00:11.688Z,19.30
2022-08-07T20:03:33.718Z,19.20
2022-08-07T20:06:02.106Z,19.20
2022-08-07T20:08:34.390Z,19.20
2022-08-07T20:11:10.054Z,19.20
2022-08-07T20:13:41.790Z,19.10
2022-08-07T20:16:22.455Z,19.10
2022-08-07T20:19:05.331Z,19.00
2022-08-07T20:21:41.917Z,19.00
2022-08-07T20:24:32.725Z,19.00
2022-08-07T20:27:02.619Z,19.00
2022-08-07T20:29:48.032Z,18.90
2022-08-07T20:32:26.178Z,18.90
2022-08-07T20:35:00.023Z,18.80
2022-08-07T20:37:46.950Z,18.80
2022-08-07T20:40:32.184Z,18.80
2022-08-07T20:43:03.799Z,18.70
2022-08-07T20:46:26.439Z,18.70
2022-08-07T20:48:36.014Z,18.70
2022-08-07T20:51:09.559Z,18.60
2022-08-07T20:54:03.165Z,18.60
2022-08-07T20:56:32.393Z,18.50
2022-08-07T20:59:05.756Z,18.50
2022-08-07T21:01:45.767Z,18.40
2022-08-07T21:04:29.241Z,18.30
2022-08-07T21:07:04.242Z,18.30
2022-08-07T21:09:53.273Z,18.20
2022-08-07T21:12:34.178Z,18.20
2022-08-07T21:15:08.005Z,18.10
2022-08-07T21:18:03.203Z,18.10
2022-08-07T21:20:29.950Z,18.00
2022-08-07T21:23:08.756Z,17.90
2022-08-07T21:26:12.901Z,17.80
2022-08-07T21:29:05.143Z,17.60
2022-08-07T21:32:42.319Z,17.40
2022-08-07T21:34:46.064Z,17.10
2022-08-07T21:37:31.633Z,16.80
2022-08-07T21:40:44.149Z,16.50
2022-08-07T21:43:25.249Z,16.20
2022-08-07T21:46:25.165Z,16.00
2022-08-07T21:49:25.594Z,15.80
2022-08-07T21:52:09.029Z,15.50
2022-08-07T21:55:29.831Z,15.30
2022-08-07T21:58:32.168Z,14.90
2022-08-07T22:01:13.769Z,14.60
2022-08-07T22:04:00.520Z,14.40
2022-08-07T22:06:49.635Z,14.30
2022-08-07T22:09:25.307Z,14.20
2022-08-07T22:12:06.939Z,14.20
2022-08-07T22:15:02.781Z,14.20
2022-08-07T22:18:17.511Z,14.10
2022-08-07T22:20:59.567Z,13.90
2022-08-07T22:24:00.613Z,13.90
2022-08-07T22:26:56.344Z,13.90
2022-08-07T22:29:48.319Z,13.80
2022-08-07T22:32:37.952Z,13.70
2022-08-07T22:35:11.330Z,13.70
2022-08-07T22:38:24.125Z,13.80
2022-08-07T22:41:03.236Z,13.80
2022-08-07T22:43:50.323Z,13.80
2022-08-07T22:47:06.121Z,13.80
2022-08-07T22:50:00.044Z,13.70
2022-08-07T22:54:05.366Z,13.70
2022-08-07T22:56:34.781Z,13.70
2022-08-07T22:59:51.105Z,13.60
2022-08-07T23:02:31.115Z,13.50
2022-08-07T23:06:07.306Z,13.40
2022-08-07T23:10:04.411Z,13.30
2022-08-07T23:12:39.872Z,13.10
2022-08-07T23:16:05.523Z,13.00
2022-08-07T23:19:39.027Z,13.00
2022-08-07T23:22:49.709Z,12.90
2022-08-07T23:25:35.256Z,12.90
2022-08-07T23:28:28.429Z,12.80
2022-08-07T23:31:18.802Z,12.80
2022-08-07T23:34:39.921Z,12.70
2022-08-07T23:38:01.006Z,12.70
2022-08-07T23:40:41.950Z,12.70
2022-08-07T23:43:42.163Z,12.70
2022-08-07T23:47:09.773Z,12.70
2022-08-07T23:50:37.221Z,12.70
2022-08-07T23:53:22.693Z,12.70
2022-08-07T23:56:11.972Z,12.60
2022-08-07T23:59:10.428Z,12.70
